Time;durP1;ratioP1;P1;durP2;ratioP2;P2;SDS_P1;SDS_P2;PMS_P1;PMS_P2;Temp;Humidity;BMP_temperature;BMP_pressure;BME280_temperature;BME280_humidity;BME280_pressure;Samples;Min_cycle;Max_cycle;Signal;HPM_P1;HPM_P2
2022/11/05 00:10:01;;;;;;;13.03;7.63;;;6.30;99.90;;;;;;5068897;28;20539;-60
2022/11/05 00:17:55;;;;;;;13.87;8.80;;;6.40;99.90;;;;;;5091302;28;20422;-60
2022/11/05 00:20:20;;;;;;;15.10;8.30;;;6.40;99.90;;;;;;5078838;28;20436;-60
2022/11/05 00:25:30;;;;;;;14.57;8.73;;;6.40;99.90;;;;;;5086230;28;20363;-60
2022/11/05 00:28:00;;;;;;;18.00;9.13;;;6.40;99.90;;;;;;5067674;28;21013;-60
2022/11/05 00:30:27;;;;;;;11.97;7.30;;;6.40;99.90;;;;;;5087721;28;20327;-60
2022/11/05 00:32:52;;;;;;;13.60;8.10;;;6.40;99.90;;;;;;5077480;28;20429;-60
2022/11/05 00:35:20;;;;;;;17.07;8.83;;;6.40;99.90;;;;;;5080551;28;20442;-60
2022/11/05 00:37:46;;;;;;;13.67;8.23;;;6.40;99.90;;;;;;5076680;28;20198;-60
2022/11/05 00:40:13;;;;;;;17.53;9.20;;;6.40;99.90;;;;;;5077459;28;20440;-60
2022/11/05 00:45:43;;;;;;;11.13;6.93;;;6.40;99.90;;;;;;5006091;28;20456;-60
2022/11/05 00:50:53;;;;;;;12.87;6.57;;;6.40;99.90;;;;;;5075145;28;20259;-60
2022/11/05 00:53:19;;;;;;;13.27;6.70;;;6.40;99.90;;;;;;5081386;28;20942;-60
2022/11/05 00:55:45;;;;;;;10.13;6.80;;;6.40;99.90;;;;;;5073815;28;20293;-60
2022/11/05 00:58:18;;;;;;;8.20;5.13;;;6.40;99.90;;;;;;5059438;28;20170;-60
2022/11/05 01:00:48;;;;;;;10.83;6.20;;;6.40;99.90;;;;;;5084348;28;20662;-60
2022/11/05 01:03:16;;;;;;;6.93;5.60;;;6.40;99.90;;;;;;5085827;28;20432;-60
2022/11/05 01:05:47;;;;;;;7.33;4.77;;;6.40;99.90;;;;;;5079001;28;20444;-60
2022/11/05 01:08:14;;;;;;;10.63;6.30;;;6.40;99.90;;;;;;5083215;28;20963;-60
2022/11/05 01:10:41;;;;;;;13.17;7.27;;;6.40;99.90;;;;;;5092866;28;20513;-60
2022/11/05 01:13:07;;;;;;;12.27;7.30;;;6.50;99.90;;;;;;5083385;28;20422;-60
2022/11/05 01:15:35;;;;;;;14.20;8.57;;;6.40;99.90;;;;;;5091375;28;20817;-59
2022/11/05 01:18:01;;;;;;;14.40;9.23;;;6.50;99.90;;;;;;5078553;28;20172;-60
2022/11/05 01:20:26;;;;;;;12.27;8.90;;;6.40;99.90;;;;;;5083950;28;20432;-60
2022/11/05 01:22:52;;;;;;;15.60;8.30;;;6.40;99.90;;;;;;5095798;28;20178;-60
2022/11/05 01:25:17;;;;;;;15.03;8.83;;;6.40;99.90;;;;;;5094388;28;20209;-60
2022/11/05 01:27:43;;;;;;;15.03;8.53;;;6.40;99.90;;;;;;5090765;28;20761;-60
2022/11/05 01:30:09;;;;;;;14.43;8.73;;;6.40;99.90;;;;;;5080927;28;20995;-60
2022/11/05 01:32:36;;;;;;;15.60;8.13;;;6.40;99.90;;;;;;5072159;28;20190;-60
2022/11/05 01:35:03;;;;;;;15.73;9.10;;;6.40;99.90;;;;;;5083662;28;20438;-60
2022/11/05 01:37:29;;;;;;;14.40;8.80;;;6.40;99.90;;;;;;5083447;28;20434;-60
2022/11/05 01:39:55;;;;;;;13.67;8.00;;;6.40;99.90;;;;;;5073974;28;20409;-60
2022/11/05 01:42:24;;;;;;;15.63;7.77;;;6.40;99.90;;;;;;5091890;28;20248;-60
2022/11/05 01:44:58;;;;;;;13.67;8.27;;;6.40;99.90;;;;;;5071867;28;20590;-60
2022/11/05 01:47:42;;;;;;;12.67;7.93;;;6.40;99.90;;;;;;5085817;28;20431;-60
2022/11/05 01:50:29;;;;;;;15.00;8.80;;;6.40;99.90;;;;;;5087102;28;20479;-60
2022/11/05 01:53:04;;;;;;;14.77;8.53;;;6.40;99.90;;;;;;5104359;28;20569;-60
2022/11/05 01:55:35;;;;;;;15.30;9.20;;;6.40;99.90;;;;;;5092547;28;20462;-60
2022/11/05 01:58:04;;;;;;;11.77;8.07;;;6.50;99.90;;;;;;5091118;28;20450;-60
2022/11/05 02:00:30;;;;;;;13.37;8.60;;;6.50;99.90;;;;;;5080919;28;20424;-60
2022/11/05 02:02:56;;;;;;;15.40;8.50;;;6.50;99.90;;;;;;5081054;28;20540;-60
2022/11/05 02:05:22;;;;;;;13.93;8.30;;;6.50;99.90;;;;;;5077478;28;20432;-61
2022/11/05 02:07:48;;;;;;;13.50;8.30;;;6.50;99.90;;;;;;5086502;28;20863;-60
2022/11/05 02:10:16;;;;;;;12.67;8.70;;;6.50;99.90;;;;;;5078984;28;20464;-60
2022/11/05 02:12:45;;;;;;;14.43;8.47;;;6.50;99.90;;;;;;5072748;28;20432;-60
2022/11/05 02:15:38;;;;;;;16.10;8.03;;;6.50;99.90;;;;;;5089819;28;20511;-60
2022/11/05 02:18:28;;;;;;;10.87;6.80;;;6.50;99.90;;;;;;5055652;28;20475;-60
2022/11/05 02:21:08;;;;;;;10.50;7.10;;;6.50;99.90;;;;;;5085050;28;20430;-60
2022/11/05 02:23:47;;;;;;;13.00;7.50;;;6.50;99.90;;;;;;5077216;28;20459;-60
2022/11/05 02:26:40;;;;;;;12.60;8.10;;;6.50;99.90;;;;;;5097129;28;20446;-60
2022/11/05 02:29:24;;;;;;;11.37;7.77;;;6.50;99.90;;;;;;5100183;28;20450;-60
2022/11/05 02:32:22;;;;;;;10.40;7.40;;;6.50;99.90;;;;;;5078355;28;20433;-60
2022/11/05 02:35:25;;;;;;;12.83;8.27;;;6.50;99.90;;;;;;5060523;28;20437;-60
2022/11/05 02:37:58;;;;;;;12.33;7.63;;;6.50;99.90;;;;;;5078514;28;20527;-60
2022/11/05 02:40:41;;;;;;;14.37;7.90;;;6.50;99.90;;;;;;5078914;28;20430;-60
2022/11/05 02:43:44;;;;;;;12.00;8.03;;;6.50;99.90;;;;;;5080780;28;20941;-60
2022/11/05 02:46:26;;;;;;;11.50;6.80;;;6.50;99.90;;;;;;5090816;28;20443;-60
2022/11/05 02:48:58;;;;;;;16.10;8.13;;;6.50;99.90;;;;;;5087441;28;20427;-60
2022/11/05 02:51:39;;;;;;;10.13;6.20;;;6.50;99.90;;;;;;5078363;28;20820;-59
2022/11/05 02:54:23;;;;;;;7.53;5.30;;;6.50;99.90;;;;;;5079727;28;20420;-60
2022/11/05 02:56:52;;;;;;;7.63;5.70;;;6.50;99.90;;;;;;5074183;28;20832;-60
2022/11/05 02:59:17;;;;;;;9.90;5.63;;;6.50;99.90;;;;;;5067908;28;20416;-60
2022/11/05 03:01:45;;;;;;;7.40;5.33;;;6.50;99.90;;;;;;5080673;28;20440;-60
2022/11/05 03:04:15;;;;;;;7.97;4.63;;;6.50;99.90;;;;;;5082658;28;20185;-60
2022/11/05 03:06:40;;;;;;;7.73;5.23;;;6.60;99.90;;;;;;5086434;28;20456;-61
2022/11/05 03:09:30;;;;;;;8.10;5.27;;;6.60;99.90;;;;;;5086657;28;20419;-61
2022/11/05 03:12:10;;;;;;;5.27;3.77;;;6.60;99.90;;;;;;5084395;28;20179;-60
2022/11/05 03:15:11;;;;;;;9.67;4.23;;;6.60;99.90;;;;;;5083487;28;20442;-60
2022/11/05 03:17:43;;;;;;;6.13;4.07;;;6.60;99.90;;;;;;5001068;28;20969;-61
2022/11/05 03:20:30;;;;;;;7.83;4.23;;;6.60;99.90;;;;;;5059997;28;20419;-60
2022/11/05 03:23:28;;;;;;;4.70;3.93;;;6.60;99.90;;;;;;5072689;28;20780;-60
2022/11/05 03:26:25;;;;;;;5.60;4.93;;;6.60;99.90;;;;;;5065351;28;20889;-60
2022/11/05 03:29:09;;;;;;;5.80;4.23;;;6.70;99.90;;;;;;5062887;28;20417;-61
2022/11/05 03:31:38;;;;;;;6.83;4.60;;;6.70;99.90;;;;;;5064669;28;20464;-60
2022/11/05 03:34:05;;;;;;;5.30;4.47;;;6.70;99.90;;;;;;5063453;28;20404;-59
2022/11/05 03:36:41;;;;;;;4.80;4.30;;;6.60;99.90;;;;;;5085062;28;20447;-60
2022/11/05 03:39:13;;;;;;;4.80;4.00;;;6.70;99.90;;;;;;5079914;28;20411;-60
2022/11/05 03:41:43;;;;;;;6.90;4.50;;;6.70;99.90;;;;;;5078619;28;20440;-59
2022/11/05 03:44:12;;;;;;;6.87;4.80;;;6.70;99.90;;;;;;5077949;28;20415;-60
2022/11/05 03:46:48;;;;;;;6.37;4.50;;;6.70;99.90;;;;;;5080667;28;20432;-60
2022/11/05 03:49:25;;;;;;;7.10;4.20;;;6.70;99.90;;;;;;5079768;28;20424;-60
2022/11/05 03:52:02;;;;;;;4.43;4.00;;;6.70;99.90;;;;;;5082649;28;20442;-60
2022/11/05 03:54:27;;;;;;;5.60;4.80;;;6.70;99.90;;;;;;5084527;28;20456;-59
2022/11/05 03:56:59;;;;;;;5.17;4.30;;;6.70;99.90;;;;;;5068987;28;20455;-60
2022/11/05 03:59:26;;;;;;;5.90;4.57;;;6.70;99.90;;;;;;5068041;28;20204;-60
2022/11/05 04:01:53;;;;;;;5.13;4.53;;;6.70;99.90;;;;;;5086848;28;20498;-59
2022/11/05 04:04:19;;;;;;;6.40;5.17;;;6.70;99.90;;;;;;5072900;28;20397;-60
2022/11/05 04:14:57;;;;;;;10.70;4.63;;;6.70;99.90;;;;;;5080028;28;20474;-60
2022/11/05 04:17:22;;;;;;;6.50;4.70;;;6.70;99.90;;;;;;5079065;28;20999;-60
2022/11/05 04:25:20;;;;;;;7.20;4.43;;;6.70;99.90;;;;;;5082782;28;20535;-60
2022/11/05 04:27:47;;;;;;;5.30;4.73;;;6.70;99.90;;;;;;5082383;28;20447;-61
2022/11/05 04:30:17;;;;;;;5.87;4.80;;;6.70;99.90;;;;;;5087153;28;20523;-60
2022/11/05 04:33:01;;;;;;;7.67;5.10;;;6.70;99.90;;;;;;5068570;28;20424;-60
2022/11/05 04:35:35;;;;;;;5.50;4.33;;;6.70;99.90;;;;;;5084277;28;20435;-60
2022/11/05 04:38:02;;;;;;;6.33;4.90;;;6.70;99.90;;;;;;5085477;28;20514;-61
2022/11/05 04:40:29;;;;;;;6.70;5.47;;;6.70;99.90;;;;;;5088387;28;20422;-61
2022/11/05 04:42:55;;;;;;;5.13;4.40;;;6.70;99.90;;;;;;5087392;28;20442;-60
2022/11/05 04:45:22;;;;;;;7.53;4.83;;;6.70;99.90;;;;;;5083464;28;20474;-60
2022/11/05 04:47:48;;;;;;;6.37;4.93;;;6.70;99.90;;;;;;5088341;28;20404;-60
2022/11/05 04:50:14;;;;;;;5.67;4.83;;;6.70;99.90;;;;;;5083917;28;21017;-60
2022/11/05 04:52:39;;;;;;;6.10;4.20;;;6.70;99.90;;;;;;5081030;28;20209;-60
2022/11/05 04:55:06;;;;;;;5.73;4.80;;;6.70;99.90;;;;;;5082487;28;20202;-60
2022/11/05 04:57:31;;;;;;;8.17;5.17;;;6.70;99.90;;;;;;5071901;28;20181;-60
2022/11/05 04:59:57;;;;;;;5.70;4.50;;;6.70;99.90;;;;;;5082377;28;20416;-60
2022/11/05 05:02:22;;;;;;;7.27;4.80;;;6.70;99.90;;;;;;5083532;28;20668;-60
2022/11/05 05:04:48;;;;;;;5.77;4.90;;;6.70;99.90;;;;;;5085029;28;20715;-60
2022/11/05 05:07:14;;;;;;;5.60;4.60;;;6.70;99.90;;;;;;5086738;28;20201;-60
2022/11/05 05:09:39;;;;;;;4.97;4.30;;;6.70;99.90;;;;;;5082582;28;20173;-60
2022/11/05 05:12:05;;;;;;;5.90;4.53;;;6.70;99.90;;;;;;5079718;28;20219;-60
2022/11/05 05:14:31;;;;;;;7.73;5.23;;;6.70;99.90;;;;;;5080046;28;20273;-60
2022/11/05 05:16:56;;;;;;;7.93;5.07;;;6.70;99.90;;;;;;5086395;28;20531;-60
2022/11/05 05:19:25;;;;;;;5.63;4.70;;;6.70;99.90;;;;;;5088993;28;20198;-60
2022/11/05 05:21:51;;;;;;;5.80;4.60;;;6.70;99.90;;;;;;5087625;28;20213;-60
2022/11/05 05:24:19;;;;;;;5.77;4.30;;;6.70;99.90;;;;;;5074437;28;20456;-60
2022/11/05 05:26:49;;;;;;;4.57;4.07;;;6.70;99.90;;;;;;5080223;28;20170;-60
2022/11/05 05:29:16;;;;;;;9.53;3.60;;;6.70;99.90;;;;;;5075078;28;20446;-60
2022/11/05 05:31:42;;;;;;;4.73;4.00;;;6.70;99.90;;;;;;5084324;28;20452;-60
2022/11/05 05:34:13;;;;;;;5.27;4.77;;;6.70;99.90;;;;;;5070733;28;20428;-61
2022/11/05 05:36:39;;;;;;;4.20;3.67;;;6.70;99.90;;;;;;5079520;28;20468;-60
2022/11/05 05:39:06;;;;;;;3.90;3.60;;;6.70;99.90;;;;;;5084434;28;20811;-60
2022/11/05 05:41:32;;;;;;;4.97;4.40;;;6.70;99.90;;;;;;5087305;28;20462;-60
2022/11/05 05:43:57;;;;;;;5.03;4.63;;;6.70;99.90;;;;;;5081740;28;20921;-60
2022/11/05 05:46:23;;;;;;;6.40;4.40;;;6.80;99.90;;;;;;5077165;28;20455;-60
2022/11/05 05:48:50;;;;;;;5.00;4.50;;;6.70;99.90;;;;;;5073178;28;20264;-60
2022/11/05 05:51:17;;;;;;;6.60;4.10;;;6.80;99.90;;;;;;5078158;28;21017;-60
2022/11/05 05:53:43;;;;;;;5.13;4.63;;;6.80;99.90;;;;;;5073992;28;20423;-61
2022/11/05 05:56:10;;;;;;;4.70;3.97;;;6.80;99.90;;;;;;5092537;28;20466;-60
2022/11/05 05:58:37;;;;;;;7.30;4.03;;;6.80;99.90;;;;;;5066743;28;20439;-60
2022/11/05 06:01:09;;;;;;;4.00;3.60;;;6.80;99.90;;;;;;5093910;28;20427;-60
2022/11/05 06:03:35;;;;;;;5.00;3.90;;;6.80;99.90;;;;;;5081985;28;20430;-61
2022/11/05 06:06:05;;;;;;;4.40;3.20;;;6.80;99.90;;;;;;5080791;28;20824;-60
2022/11/05 06:08:31;;;;;;;4.33;2.70;;;6.80;99.90;;;;;;5092138;28;20251;-60
2022/11/05 06:10:58;;;;;;;2.17;2.03;;;6.70;99.90;;;;;;5085009;28;20866;-60
2022/11/05 06:13:25;;;;;;;1.67;1.57;;;6.80;99.90;;;;;;5079442;28;20961;-60
2022/11/05 06:15:50;;;;;;;2.50;1.83;;;6.80;99.90;;;;;;5093308;28;20529;-60
2022/11/05 06:18:16;;;;;;;2.60;2.03;;;6.70;99.90;;;;;;5087938;28;20423;-60
2022/11/05 06:20:42;;;;;;;3.10;2.10;;;6.70;99.90;;;;;;5083544;28;20209;-60
2022/11/05 06:23:07;;;;;;;2.87;2.00;;;6.70;99.90;;;;;;5084042;28;20184;-60
2022/11/05 06:25:33;;;;;;;2.30;1.90;;;6.70;99.90;;;;;;5090339;28;20683;-60
2022/11/05 06:27:58;;;;;;;2.20;1.70;;;6.70;99.90;;;;;;5092596;28;20197;-60
2022/11/05 06:30:24;;;;;;;3.63;1.77;;;6.70;99.90;;;;;;5085164;28;20850;-60
2022/11/05 06:32:50;;;;;;;2.37;2.17;;;6.70;99.90;;;;;;5084942;28;20171;-60
2022/11/05 06:35:15;;;;;;;1.70;1.60;;;6.70;99.90;;;;;;5084277;28;20197;-60
2022/11/05 06:37:41;;;;;;;4.30;2.07;;;6.70;99.90;;;;;;5090279;28;20217;-60
2022/11/05 06:40:07;;;;;;;1.40;1.30;;;6.70;99.90;;;;;;5069844;28;20209;-60
2022/11/05 06:42:33;;;;;;;1.60;1.50;;;6.70;99.90;;;;;;5085669;28;20190;-60
2022/11/05 06:44:59;;;;;;;1.87;1.50;;;6.70;99.90;;;;;;5099765;28;20509;-60
2022/11/05 06:47:24;;;;;;;1.20;1.20;;;6.60;99.90;;;;;;5069161;28;20175;-59
2022/11/05 06:49:50;;;;;;;1.30;1.20;;;6.60;99.90;;;;;;5087631;28;20201;-60
2022/11/05 06:52:16;;;;;;;1.20;1.10;;;6.60;99.90;;;;;;5089623;28;20219;-60
2022/11/05 06:54:42;;;;;;;1.40;1.30;;;6.60;99.90;;;;;;5061186;28;20809;-61
2022/11/05 06:57:10;;;;;;;1.20;1.10;;;6.60;99.90;;;;;;5076295;28;20451;-59
2022/11/05 06:59:38;;;;;;;2.00;1.70;;;6.70;99.90;;;;;;5068581;28;20431;-61
2022/11/05 07:02:05;;;;;;;2.30;2.10;;;6.70;99.90;;;;;;5084883;28;20876;-60
2022/11/05 07:04:31;;;;;;;1.13;1.03;;;6.70;99.90;;;;;;5082267;28;20467;-59
2022/11/05 07:07:00;;;;;;;2.30;2.00;;;6.70;99.90;;;;;;5063413;28;20440;-60
2022/11/05 07:09:26;;;;;;;1.30;1.20;;;6.80;99.90;;;;;;5090610;28;20423;-60
2022/11/05 07:11:52;;;;;;;1.20;1.20;;;6.80;99.90;;;;;;5065057;28;20452;-60
2022/11/05 07:14:17;;;;;;;1.17;1.07;;;6.80;99.90;;;;;;5079460;28;20945;-60
2022/11/05 07:16:43;;;;;;;1.40;1.30;;;6.80;99.90;;;;;;5085591;28;20189;-60
2022/11/05 07:19:09;;;;;;;1.23;1.20;;;6.80;99.90;;;;;;5082418;28;20641;-60
2022/11/05 07:21:34;;;;;;;1.10;1.10;;;6.80;99.90;;;;;;5073310;28;20179;-60
2022/11/05 07:24:00;;;;;;;1.57;1.47;;;6.90;99.90;;;;;;5082131;28;20256;-61
2022/11/05 07:26:25;;;;;;;10.20;1.47;;;6.90;99.90;;;;;;5060660;28;20206;-60
2022/11/05 07:28:51;;;;;;;1.30;1.20;;;6.90;99.90;;;;;;5085803;28;20695;-60
2022/11/05 07:31:17;;;;;;;4.83;3.23;;;6.90;99.90;;;;;;5079430;28;20606;-60
2022/11/05 07:33:42;;;;;;;4.27;3.47;;;6.90;99.90;;;;;;5089662;28;20640;-61
2022/11/05 07:36:08;;;;;;;3.03;2.73;;;7.00;99.90;;;;;;5088454;28;20194;-60
2022/11/05 07:38:34;;;;;;;2.43;2.03;;;7.00;99.90;;;;;;5081470;28;20178;-60
2022/11/05 07:41:00;;;;;;;3.13;1.70;;;7.00;99.90;;;;;;5079079;28;20440;-60
2022/11/05 07:43:25;;;;;;;1.67;1.50;;;7.00;99.90;;;;;;5088888;28;20174;-60
2022/11/05 07:45:51;;;;;;;1.93;1.60;;;7.10;99.90;;;;;;5088717;28;20268;-60
2022/11/05 07:48:17;;;;;;;2.80;1.60;;;7.10;99.90;;;;;;5093866;28;20181;-60
2022/11/05 07:50:42;;;;;;;1.73;1.63;;;7.10;99.90;;;;;;5079467;28;20579;-60
2022/11/05 07:53:14;;;;;;;1.30;1.30;;;7.10;99.90;;;;;;5088333;28;20223;-60
2022/11/05 07:55:41;;;;;;;1.77;1.40;;;7.10;99.90;;;;;;5087864;28;20245;-60
2022/11/05 07:58:06;;;;;;;2.10;1.90;;;7.10;99.90;;;;;;5065038;28;20459;-60
2022/11/05 08:00:32;;;;;;;2.13;2.03;;;7.10;99.90;;;;;;5070799;28;21447;-60
2022/11/05 08:03:13;;;;;;;7.03;2.23;;;7.10;99.90;;;;;;5067480;28;20555;-59
2022/11/05 08:05:43;;;;;;;3.00;2.17;;;7.10;99.90;;;;;;5075787;28;20521;-58
2022/11/05 08:08:12;;;;;;;2.57;2.17;;;7.20;99.90;;;;;;5079741;28;20435;-57
2022/11/05 08:10:38;;;;;;;2.17;1.87;;;7.20;99.90;;;;;;5075558;28;20476;-60
2022/11/05 08:13:04;;;;;;;2.23;1.60;;;7.20;99.90;;;;;;5080739;28;20434;-59
2022/11/05 08:15:30;;;;;;;1.77;1.67;;;7.20;99.90;;;;;;5077517;28;21876;-57
2022/11/05 08:18:05;;;;;;;1.70;1.60;;;7.20;99.90;;;;;;5081864;28;20462;-59
2022/11/05 08:20:31;;;;;;;1.70;1.60;;;7.20;99.90;;;;;;5077565;28;20441;-61
2022/11/05 08:22:57;;;;;;;2.10;1.90;;;7.20;99.90;;;;;;5078427;28;20431;-60
2022/11/05 08:25:24;;;;;;;1.90;1.73;;;7.30;99.90;;;;;;5087508;28;20531;-61
2022/11/05 08:27:56;;;;;;;2.33;2.00;;;7.30;99.90;;;;;;5082787;28;20459;-60
2022/11/05 08:30:21;;;;;;;1.57;1.47;;;7.30;99.90;;;;;;5085349;28;20490;-61
2022/11/05 08:32:47;;;;;;;1.60;1.50;;;7.40;99.90;;;;;;5082259;28;20456;-61
2022/11/05 08:35:12;;;;;;;2.10;1.90;;;7.40;99.90;;;;;;5077557;28;20277;-63
2022/11/05 08:37:38;;;;;;;3.10;2.00;;;7.40;99.90;;;;;;5080621;28;20238;-60
2022/11/05 08:40:04;;;;;;;3.77;2.70;;;7.40;99.90;;;;;;5077976;28;20194;-56
2022/11/05 08:42:30;;;;;;;2.67;2.00;;;7.40;99.90;;;;;;5079574;28;22302;-60
2022/11/05 08:44:55;;;;;;;4.10;1.50;;;7.40;99.90;;;;;;5080275;28;20538;-60
2022/11/05 08:47:21;;;;;;;1.87;1.60;;;7.40;99.90;;;;;;5079946;28;20361;-60
2022/11/05 08:49:47;;;;;;;2.30;2.10;;;7.40;99.90;;;;;;5082432;28;20619;-61
2022/11/05 08:52:12;;;;;;;2.00;1.80;;;7.30;99.90;;;;;;5083987;28;20178;-62
2022/11/05 08:54:38;;;;;;;6.33;3.50;;;7.40;99.90;;;;;;5075977;28;20210;-60
2022/11/05 08:57:03;;;;;;;3.80;2.53;;;7.30;99.90;;;;;;5083406;28;20174;-59
2022/11/05 08:59:30;;;;;;;3.63;2.70;;;7.40;99.90;;;;;;5086612;28;20184;-61
2022/11/05 09:01:56;;;;;;;5.70;2.53;;;7.40;99.90;;;;;;5081459;28;20185;-60
2022/11/05 09:04:22;;;;;;;3.10;2.23;;;7.40;99.90;;;;;;5081411;28;20526;-60
2022/11/05 09:06:47;;;;;;;2.17;1.97;;;7.40;99.90;;;;;;5082016;28;20439;-61
2022/11/05 09:09:13;;;;;;;2.80;2.47;;;7.40;99.90;;;;;;5066497;28;20216;-59
2022/11/05 09:11:38;;;;;;;5.57;2.93;;;7.40;99.90;;;;;;5079534;28;20210;-59
2022/11/05 09:14:04;;;;;;;4.70;4.03;;;7.40;99.90;;;;;;5068391;28;20202;-60
2022/11/05 09:16:33;;;;;;;4.03;3.07;;;7.30;99.90;;;;;;5077150;28;20169;-60
2022/11/05 09:18:58;;;;;;;3.73;3.20;;;7.30;99.90;;;;;;5080733;28;20223;-59
2022/11/05 09:21:24;;;;;;;3.30;3.00;;;7.40;99.90;;;;;;5089754;28;20439;-59
2022/11/05 09:23:50;;;;;;;3.03;2.73;;;7.40;99.90;;;;;;5080662;28;20179;-59
2022/11/05 09:26:15;;;;;;;3.60;3.30;;;7.50;99.90;;;;;;5084172;28;20291;-59
2022/11/05 09:28:42;;;;;;;4.20;3.23;;;7.60;99.90;;;;;;5084377;28;20236;-62
2022/11/05 09:31:09;;;;;;;4.60;3.70;;;7.70;99.90;;;;;;5083164;28;20198;-57
2022/11/05 09:33:37;;;;;;;3.50;3.00;;;7.70;99.90;;;;;;5087631;28;20439;-61
2022/11/05 09:36:03;;;;;;;5.93;3.70;;;7.70;99.90;;;;;;5078704;28;20451;-60
2022/11/05 09:38:30;;;;;;;5.40;4.00;;;7.80;99.90;;;;;;5064314;28;20489;-59
2022/11/05 09:41:00;;;;;;;7.33;4.60;;;7.90;99.90;;;;;;5088282;28;20431;-64
2022/11/05 09:43:49;;;;;;;5.40;4.50;;;7.90;99.90;;;;;;5081007;28;20471;-60
2022/11/05 09:46:18;;;;;;;5.10;4.00;;;7.90;99.90;;;;;;5083751;28;20439;-56
2022/11/05 09:48:48;;;;;;;5.23;4.50;;;7.90;99.90;;;;;;5084608;28;20427;-59
2022/11/05 09:51:15;;;;;;;4.80;3.40;;;7.90;99.90;;;;;;5083592;28;20459;-57
2022/11/05 09:53:41;;;;;;;6.00;3.90;;;7.90;99.90;;;;;;5064523;28;20465;-56
2022/11/05 09:56:25;;;;;;;7.00;5.37;;;7.90;99.90;;;;;;5081015;28;20487;-60
2022/11/05 09:59:03;;;;;;;5.73;4.53;;;7.90;99.90;;;;;;5077822;28;20495;-60
2022/11/05 10:01:33;;;;;;;6.53;4.63;;;7.90;99.90;;;;;;5082337;28;20432;-59
2022/11/05 10:04:04;;;;;;;6.03;4.60;;;7.80;99.90;;;;;;5084619;28;20505;-60
2022/11/05 10:06:30;;;;;;;7.37;5.30;;;7.90;99.90;;;;;;5081917;28;20511;-60
2022/11/05 10:09:11;;;;;;;5.67;4.77;;;7.90;99.90;;;;;;5081498;28;20531;-61
2022/11/05 10:11:43;;;;;;;8.87;5.90;;;7.90;99.90;;;;;;5078217;28;20197;-60
2022/11/05 10:14:25;;;;;;;14.00;7.67;;;7.90;99.90;;;;;;5080778;28;20938;-59
2022/11/05 10:17:03;;;;;;;16.90;10.43;;;7.90;99.90;;;;;;5079752;28;20867;-60
2022/11/05 10:19:43;;;;;;;11.00;7.80;;;8.00;99.90;;;;;;5077270;28;20443;-59
2022/11/05 10:22:15;;;;;;;7.50;6.13;;;8.10;99.90;;;;;;5081378;28;20423;-60
2022/11/05 10:24:45;;;;;;;7.50;5.73;;;8.10;99.90;;;;;;5080401;28;20459;-60
2022/11/05 10:27:24;;;;;;;7.70;5.30;;;8.00;99.90;;;;;;5084821;28;20908;-60
2022/11/05 10:29:50;;;;;;;12.17;8.20;;;8.00;99.90;;;;;;5067366;28;21080;-60
2022/11/05 10:32:37;;;;;;;11.97;8.67;;;8.00;99.90;;;;;;5084195;28;20437;-59
2022/11/05 10:35:06;;;;;;;10.93;6.40;;;7.90;99.90;;;;;;5083403;28;20445;-59
2022/11/05 10:37:32;;;;;;;11.13;5.90;;;7.90;99.90;;;;;;5083440;28;20443;-60
2022/11/05 10:39:58;;;;;;;5.47;4.67;;;7.80;99.90;;;;;;5081306;28;20427;-60
2022/11/05 10:42:45;;;;;;;9.97;5.80;;;7.70;99.90;;;;;;5078981;28;20419;-60
2022/11/05 10:45:18;;;;;;;6.10;4.63;;;7.70;99.90;;;;;;5080037;28;20439;-60
2022/11/05 10:47:58;;;;;;;6.63;5.43;;;7.60;99.90;;;;;;5083557;28;20433;-60
2022/11/05 10:50:26;;;;;;;12.57;5.30;;;7.60;99.90;;;;;;5065933;28;21024;-59
2022/11/05 10:53:05;;;;;;;6.37;4.37;;;7.60;99.90;;;;;;5081093;28;20530;-60
2022/11/05 10:55:34;;;;;;;6.03;5.20;;;7.60;99.90;;;;;;5078441;28;20870;-59
2022/11/05 10:58:19;;;;;;;7.50;5.60;;;7.60;99.90;;;;;;5081128;28;20420;-60
2022/11/05 11:00:59;;;;;;;5.60;4.60;;;7.60;99.90;;;;;;5081528;28;20513;-60
2022/11/05 11:03:46;;;;;;;8.53;5.50;;;7.60;99.90;;;;;;5078679;28;20492;-62
2022/11/05 11:06:18;;;;;;;7.47;5.10;;;7.70;99.90;;;;;;5084870;28;20509;-59
2022/11/05 11:08:46;;;;;;;10.10;5.63;;;7.70;99.90;;;;;;5086261;28;20435;-59
2022/11/05 11:11:24;;;;;;;6.53;5.20;;;7.70;99.90;;;;;;5088845;28;20475;-60
2022/11/05 11:13:55;;;;;;;8.00;4.47;;;7.80;99.90;;;;;;5074342;28;21135;-60
2022/11/05 11:16:26;;;;;;;7.60;5.90;;;7.80;99.90;;;;;;5082504;28;20441;-61
2022/11/05 11:18:58;;;;;;;7.00;5.37;;;7.90;99.90;;;;;;5085104;28;20471;-60
2022/11/05 11:21:25;;;;;;;6.70;4.93;;;7.90;99.90;;;;;;5082661;28;20441;-60
2022/11/05 11:24:05;;;;;;;6.30;5.07;;;8.00;99.90;;;;;;5086345;28;20827;-60
2022/11/05 11:26:39;;;;;;;7.40;6.07;;;8.00;99.90;;;;;;5089555;28;20782;-61
2022/11/05 11:29:27;;;;;;;7.00;4.73;;;8.10;99.90;;;;;;5077296;28;20440;-62
2022/11/05 11:31:57;;;;;;;9.90;7.00;;;8.20;99.90;;;;;;5082650;28;20454;-61
2022/11/05 11:34:32;;;;;;;8.97;6.23;;;8.20;99.90;;;;;;5078502;28;20431;-60
2022/11/05 11:37:20;;;;;;;15.10;5.70;;;8.30;99.90;;;;;;5083060;28;20539;-61
2022/11/05 11:39:50;;;;;;;11.10;6.17;;;8.30;99.90;;;;;;5080298;28;21141;-59
2022/11/05 11:42:34;;;;;;;10.43;5.60;;;8.30;99.90;;;;;;5072984;28;20444;-62
2022/11/05 11:45:06;;;;;;;10.73;6.70;;;8.40;99.90;;;;;;5083599;28;20536;-60
2022/11/05 11:47:32;;;;;;;8.77;6.33;;;8.40;99.90;;;;;;5078778;28;20396;-60
2022/11/05 11:50:00;;;;;;;11.10;6.97;;;8.40;99.90;;;;;;5082153;28;20462;-60
2022/11/05 11:52:36;;;;;;;8.83;5.20;;;8.30;99.90;;;;;;5083740;28;20463;-61
2022/11/05 11:55:11;;;;;;;8.73;5.63;;;8.30;99.90;;;;;;5075461;28;20483;-59
2022/11/05 11:58:06;;;;;;;9.07;5.37;;;8.30;99.90;;;;;;5086649;28;20423;-60
2022/11/05 12:00:42;;;;;;;9.37;5.13;;;8.30;99.90;;;;;;5066080;28;20965;-60
2022/11/05 12:03:30;;;;;;;4.90;4.20;;;8.30;99.90;;;;;;5088600;28;20434;-60
2022/11/05 12:06:04;;;;;;;6.57;5.53;;;8.30;99.90;;;;;;5113180;22;20511;-59
2022/11/05 12:08:44;;;;;;;7.47;5.30;;;8.30;99.90;;;;;;5081522;28;20492;-57
2022/11/05 12:11:24;;;;;;;5.77;4.40;;;8.30;99.90;;;;;;5081945;28;20500;-58
2022/11/05 12:14:08;;;;;;;9.00;4.70;;;8.20;99.90;;;;;;5071415;28;20415;-58
2022/11/05 12:16:46;;;;;;;11.80;5.40;;;8.30;99.90;;;;;;5070861;28;20475;-56
2022/11/05 12:19:37;;;;;;;12.10;5.20;;;8.30;99.90;;;;;;5100980;28;20441;-57
2022/11/05 12:22:15;;;;;;;8.67;4.60;;;8.20;99.90;;;;;;5089619;28;20522;-57
2022/11/05 12:24:43;;;;;;;8.93;5.80;;;8.20;99.90;;;;;;5062809;28;20520;-57
2022/11/05 12:27:41;;;;;;;9.80;5.97;;;8.20;99.90;;;;;;5071980;28;20453;-58
2022/11/05 12:30:22;;;;;;;10.40;5.80;;;8.10;99.90;;;;;;5089749;28;20884;-58
2022/11/05 12:32:48;;;;;;;10.17;5.97;;;8.20;99.90;;;;;;5086045;28;20433;-59
2022/11/05 12:35:48;;;;;;;6.50;5.40;;;8.20;99.90;;;;;;5077529;28;20419;-56
2022/11/05 12:38:44;;;;;;;8.13;5.50;;;8.20;99.90;;;;;;5099489;28;20170;-59
2022/11/05 12:41:18;;;;;;;9.40;6.17;;;8.20;99.90;;;;;;5094743;28;20427;-57
2022/11/05 12:43:53;;;;;;;9.50;6.60;;;8.30;99.90;;;;;;5080014;28;20447;-57
2022/11/05 12:46:31;;;;;;;7.57;4.87;;;8.30;99.90;;;;;;5093468;28;20484;-59
2022/11/05 12:49:24;;;;;;;6.30;5.07;;;8.30;99.90;;;;;;5102316;28;20414;-59
2022/11/05 12:51:58;;;;;;;6.17;4.53;;;8.30;99.90;;;;;;5092733;28;20471;-57
2022/11/05 12:54:51;;;;;;;6.80;4.60;;;8.30;99.90;;;;;;5089742;28;20418;-58
2022/11/05 12:57:18;;;;;;;7.43;5.50;;;8.30;99.90;;;;;;5082102;28;20443;-57
2022/11/05 13:00:02;;;;;;;7.07;5.10;;;8.30;99.90;;;;;;5090780;28;20412;-59
2022/11/05 13:02:39;;;;;;;9.80;4.87;;;8.30;99.90;;;;;;5087490;28;20532;-57
2022/11/05 13:05:34;;;;;;;17.43;5.47;;;8.30;99.90;;;;;;5098535;28;20485;-57
2022/11/05 13:08:11;;;;;;;7.43;5.30;;;8.30;99.90;;;;;;5092904;28;20435;-59
2022/11/05 13:10:43;;;;;;;8.10;5.80;;;8.30;99.90;;;;;;5092313;28;20777;-57
2022/11/05 13:13:17;;;;;;;10.23;5.93;;;8.20;99.90;;;;;;5094029;28;20451;-57
2022/11/05 13:16:06;;;;;;;12.83;5.93;;;8.20;99.90;;;;;;5066843;28;20572;-57
2022/11/05 13:18:53;;;;;;;11.50;4.63;;;8.20;99.90;;;;;;5091220;28;20406;-59
2022/11/05 13:21:23;;;;;;;6.67;4.87;;;8.10;99.90;;;;;;5086801;28;20431;-59
2022/11/05 13:24:02;;;;;;;7.67;5.10;;;8.10;99.90;;;;;;5089566;28;20435;-56
2022/11/05 13:26:36;;;;;;;5.20;3.77;;;8.10;99.90;;;;;;5098138;28;20451;-60
2022/11/05 13:29:07;;;;;;;8.83;4.70;;;8.10;99.90;;;;;;5089848;28;20874;-60
2022/11/05 13:31:42;;;;;;;6.60;4.83;;;8.10;99.90;;;;;;5088084;28;20546;-58
2022/11/05 13:34:11;;;;;;;8.93;5.67;;;8.10;99.90;;;;;;5089398;28;20435;-57
2022/11/05 13:39:45;;;;;;;8.40;4.60;;;8.00;99.90;;;;;;5091579;28;20422;-57
2022/11/05 13:42:35;;;;;;;10.20;4.97;;;8.00;99.90;;;;;;5088185;28;20432;-58
2022/11/05 13:45:25;;;;;;;8.37;5.10;;;7.90;99.90;;;;;;5082416;28;20423;-58
2022/11/05 13:47:59;;;;;;;5.30;4.30;;;7.90;99.90;;;;;;5099179;28;20507;-58
2022/11/05 13:50:55;;;;;;;7.80;4.83;;;7.90;99.90;;;;;;5091028;28;20485;-57
2022/11/05 13:53:39;;;;;;;5.40;4.40;;;7.90;99.90;;;;;;5084812;28;20475;-57
2022/11/05 13:56:20;;;;;;;4.07;3.30;;;7.90;99.90;;;;;;5087842;28;20451;-58
2022/11/05 13:58:48;;;;;;;5.30;3.90;;;8.00;99.90;;;;;;5072723;28;20976;-58